createdAt,value
2023-04-25T00:01:38.696Z,34.47
2023-04-25T00:04:07.766Z,36.47
2023-04-25T00:06:38.041Z,34.80
2023-04-25T00:09:08.434Z,35.83
2023-04-25T00:11:36.443Z,34.40
2023-04-25T00:14:05.660Z,34.87
2023-04-25T00:16:35.989Z,36.10
2023-04-25T00:19:05.796Z,36.27
2023-04-25T00:21:33.944Z,36.00
2023-04-25T00:24:02.228Z,36.33
2023-04-25T00:26:30.456Z,35.80
2023-04-25T00:28:58.302Z,36.40
2023-04-25T00:31:26.212Z,35.33
2023-04-25T00:33:54.343Z,35.40
2023-04-25T00:36:23.934Z,34.10
2023-04-25T00:38:51.780Z,37.33
2023-04-25T00:41:20.548Z,34.20
2023-04-25T00:43:49.970Z,34.93
2023-04-25T00:46:18.254Z,35.63
2023-04-25T00:48:46.599Z,34.60
2023-04-25T00:51:18.149Z,34.50
2023-04-25T00:53:49.056Z,34.70
2023-04-25T00:56:18.195Z,35.10
2023-04-25T00:58:46.588Z,35.40
2023-04-25T01:01:15.359Z,35.30
2023-04-25T01:03:44.169Z,36.20
2023-04-25T01:06:13.451Z,34.43
2023-04-25T01:08:41.637Z,34.33
2023-04-25T01:11:10.924Z,34.90
2023-04-25T01:13:39.066Z,34.70
2023-04-25T01:16:07.509Z,36.73
2023-04-25T01:18:35.586Z,34.70
2023-04-25T01:21:11.038Z,34.70
2023-04-25T01:23:40.499Z,34.50
2023-04-25T01:26:10.145Z,36.00
2023-04-25T01:28:38.383Z,35.60
2023-04-25T01:31:06.843Z,35.73
2023-04-25T01:33:35.211Z,35.43
2023-04-25T01:36:03.206Z,36.83
2023-04-25T01:38:32.550Z,35.57
2023-04-25T01:41:00.603Z,35.13
2023-04-25T01:43:28.756Z,37.93
2023-04-25T01:45:57.344Z,35.07
2023-04-25T01:48:25.498Z,35.10
2023-04-25T01:50:53.489Z,34.70
2023-04-25T01:53:21.349Z,36.90
2023-04-25T01:55:50.656Z,35.93
2023-04-25T01:58:18.493Z,36.40
2023-04-25T02:00:46.526Z,35.97
2023-04-25T02:03:14.591Z,35.43
2023-04-25T02:05:42.766Z,36.23
2023-04-25T02:08:12.027Z,35.57
2023-04-25T02:10:39.940Z,37.13
2023-04-25T02:13:09.250Z,35.50
2023-04-25T02:15:37.332Z,36.50
2023-04-25T02:18:07.571Z,36.40
2023-04-25T02:20:35.767Z,38.70
2023-04-25T02:23:03.731Z,35.60
2023-04-25T02:25:32.015Z,35.93
2023-04-25T02:27:59.920Z,36.23
2023-04-25T02:30:29.448Z,38.87
2023-04-25T02:32:57.619Z,35.60
2023-04-25T02:35:25.840Z,36.07
2023-04-25T02:37:54.546Z,35.40
2023-04-25T02:40:22.407Z,36.10
2023-04-25T02:42:50.516Z,36.00
2023-04-25T02:45:18.517Z,37.20
2023-04-25T02:47:47.847Z,35.53
2023-04-25T02:50:15.695Z,36.50
2023-04-25T02:52:43.514Z,36.97
2023-04-25T02:55:11.754Z,35.57
2023-04-25T02:57:39.858Z,36.10
2023-04-25T03:00:09.253Z,37.73
2023-04-25T03:02:37.191Z,36.20
2023-04-25T03:05:06.929Z,36.53
2023-04-25T03:07:34.993Z,36.07
2023-04-25T03:10:03.568Z,38.23
2023-04-25T03:12:31.599Z,35.70
2023-04-25T03:14:59.693Z,36.10
2023-04-25T03:17:27.822Z,37.97
2023-04-25T03:19:56.136Z,36.57
2023-04-25T03:22:25.677Z,37.00
2023-04-25T03:24:53.543Z,37.00
2023-04-25T03:27:21.584Z,38.40
2023-04-25T03:29:49.928Z,39.60
2023-04-25T03:32:18.009Z,39.50
2023-04-25T03:34:46.018Z,40.30
2023-04-25T03:37:14.232Z,38.33
2023-04-25T03:39:43.648Z,37.80
2023-04-25T03:42:11.504Z,39.83
2023-04-25T03:44:39.579Z,37.37
2023-04-25T03:47:07.502Z,38.97
2023-04-25T03:49:36.529Z,39.60
2023-04-25T03:52:05.203Z,37.93
2023-04-25T03:54:33.603Z,37.80
2023-04-25T03:57:04.501Z,38.97
2023-04-25T03:59:32.397Z,36.90
2023-04-25T04:02:00.352Z,36.63
2023-04-25T04:04:28.374Z,38.90
2023-04-25T04:06:56.609Z,37.50
2023-04-25T04:09:24.582Z,38.37
2023-04-25T04:11:52.466Z,36.83
2023-04-25T04:14:21.831Z,37.53
2023-04-25T04:16:49.970Z,36.60
2023-04-25T04:19:17.922Z,40.17
2023-04-25T04:21:46.054Z,37.07
2023-04-25T04:24:14.297Z,38.90
2023-04-25T04:26:42.155Z,39.70
2023-04-25T04:29:09.988Z,40.63
2023-04-25T04:31:39.235Z,41.10
2023-04-25T04:34:07.376Z,41.10
2023-04-25T04:36:35.267Z,42.85
2023-04-25T04:39:04.462Z,41.40
2023-04-25T04:41:32.303Z,41.28
2023-04-25T04:44:02.047Z,41.77
2023-04-25T04:46:30.214Z,41.40
2023-04-25T04:48:59.658Z,42.42
2023-04-25T04:51:27.716Z,42.35
2023-04-25T04:53:59.456Z,42.65
2023-04-25T04:56:27.375Z,41.60
2023-04-25T04:58:55.456Z,43.40
2023-04-25T05:01:23.782Z,40.90
2023-04-25T05:03:53.023Z,41.60
2023-04-25T05:06:22.737Z,41.10
2023-04-25T05:08:50.630Z,39.77
2023-04-25T05:11:18.563Z,41.58
2023-04-25T05:13:46.587Z,41.83
2023-04-25T05:16:14.646Z,41.90
2023-04-25T05:18:42.500Z,42.47
2023-04-25T05:21:10.381Z,41.47
2023-04-25T05:23:39.877Z,39.92
2023-04-25T05:26:14.674Z,42.30
2023-04-25T05:28:43.229Z,40.07
2023-04-25T05:31:12.318Z,40.80
2023-04-25T05:33:40.265Z,41.22
2023-04-25T05:36:09.244Z,41.70
2023-04-25T05:38:37.284Z,40.33
2023-04-25T05:41:06.623Z,42.20
2023-04-25T05:43:34.474Z,40.10
2023-04-25T05:46:02.646Z,43.17
2023-04-25T05:48:31.157Z,41.70
2023-04-25T05:50:59.198Z,41.50
2023-04-25T05:53:27.113Z,41.03
2023-04-25T05:55:55.202Z,42.08
2023-04-25T05:58:24.962Z,41.70
2023-04-25T06:00:53.151Z,40.20
2023-04-25T06:03:21.482Z,39.40
2023-04-25T06:05:50.015Z,38.83
2023-04-25T06:08:18.162Z,40.60
2023-04-25T06:10:46.216Z,38.77
2023-04-25T06:13:14.277Z,38.53
2023-04-25T06:15:43.896Z,40.60
2023-04-25T06:18:11.869Z,41.63
2023-04-25T06:20:39.909Z,42.45
2023-04-25T06:23:07.843Z,42.10
2023-04-25T06:25:35.975Z,42.67
2023-04-25T06:28:03.943Z,42.50
2023-04-25T06:30:31.973Z,41.25
2023-04-25T06:33:01.340Z,41.80
2023-04-25T06:35:29.496Z,42.50
2023-04-25T06:37:57.416Z,40.80
2023-04-25T06:40:25.689Z,42.30
2023-04-25T06:42:53.782Z,41.80
2023-04-25T06:45:21.659Z,43.00
2023-04-25T06:47:49.571Z,42.00
2023-04-25T06:50:18.905Z,43.33
2023-04-25T06:52:47.159Z,43.60
2023-04-25T06:55:15.121Z,42.25
2023-04-25T06:57:42.971Z,42.80
2023-04-25T07:00:12.141Z,43.47
2023-04-25T07:02:40.104Z,43.53
2023-04-25T07:05:08.447Z,41.10
2023-04-25T07:07:37.659Z,40.50
2023-04-25T07:10:06.371Z,40.50
2023-04-25T07:12:34.494Z,40.70
2023-04-25T07:15:06.798Z,40.87
2023-04-25T07:17:35.808Z,40.67
2023-04-25T07:20:04.641Z,40.13
2023-04-25T07:22:32.770Z,40.00
2023-04-25T07:25:02.116Z,42.80
2023-04-25T07:27:30.095Z,43.20
2023-04-25T07:29:58.308Z,41.57
2023-04-25T07:32:27.466Z,41.87
2023-04-25T07:34:55.392Z,40.87
2023-04-25T07:37:23.571Z,40.97
2023-04-25T07:39:51.475Z,41.13
2023-04-25T07:42:20.867Z,41.13
2023-04-25T07:44:48.760Z,42.38
2023-04-25T07:47:16.696Z,43.88
2023-04-25T07:49:44.576Z,44.75
2023-04-25T07:52:12.434Z,45.20
2023-04-25T07:54:40.357Z,45.20
2023-04-25T07:57:08.390Z,44.50
2023-04-25T07:59:38.216Z,45.90
2023-04-25T08:02:06.373Z,45.10
2023-04-25T08:04:34.532Z,45.65
2023-04-25T08:07:02.646Z,43.40
2023-04-25T08:09:34.994Z,45.80
2023-04-25T08:12:03.261Z,44.60
2023-04-25T08:14:36.647Z,44.97
2023-04-25T08:17:06.403Z,45.40
2023-04-25T08:19:34.583Z,45.40
2023-04-25T08:22:02.665Z,45.28
2023-04-25T08:24:30.560Z,44.95
2023-04-25T08:26:59.768Z,44.80
2023-04-25T08:29:29.610Z,46.45
2023-04-25T08:31:57.981Z,44.85
2023-04-25T08:34:27.564Z,44.33
2023-04-25T08:36:55.516Z,43.57
2023-04-25T08:39:23.699Z,44.30
2023-04-25T08:41:53.553Z,43.10
2023-04-25T08:44:22.909Z,43.67
2023-04-25T08:46:51.622Z,43.60
2023-04-25T08:49:20.020Z,43.53
2023-04-25T08:51:51.501Z,45.17
2023-04-25T08:54:33.978Z,43.40
2023-04-25T08:57:05.436Z,45.30
2023-04-25T08:59:36.567Z,44.78
2023-04-25T09:02:05.978Z,43.03
2023-04-25T09:04:34.096Z,44.70
2023-04-25T09:07:03.409Z,45.47
2023-04-25T09:09:32.389Z,45.50
2023-04-25T09:12:02.741Z,43.70
2023-04-25T09:14:30.934Z,43.20
2023-04-25T09:17:04.465Z,44.60
2023-04-25T09:22:06.773Z,45.05
2023-04-25T09:24:37.103Z,45.80
2023-04-25T09:27:08.676Z,45.10
2023-04-25T09:29:39.214Z,46.27
2023-04-25T09:32:23.284Z,45.70
2023-04-25T09:34:52.695Z,43.97
2023-04-25T09:37:23.721Z,44.05
2023-04-25T09:39:52.801Z,46.25
2023-04-25T09:42:25.005Z,45.05
2023-04-25T09:44:54.934Z,46.00
2023-04-25T09:47:24.752Z,46.20
2023-04-25T09:49:53.837Z,44.93
2023-04-25T09:52:26.201Z,43.20
2023-04-25T09:54:56.252Z,42.90
2023-04-25T09:57:25.298Z,42.97
2023-04-25T09:59:54.375Z,43.93
2023-04-25T10:02:24.176Z,42.60
2023-04-25T10:04:55.547Z,42.70
2023-04-25T10:07:28.792Z,44.28
2023-04-25T10:10:02.903Z,45.85
2023-04-25T10:12:32.144Z,43.63
2023-04-25T10:15:01.405Z,42.67
2023-04-25T10:17:29.912Z,42.90
2023-04-25T10:19:58.369Z,44.58
2023-04-25T10:22:32.945Z,46.30
2023-04-25T10:25:01.315Z,44.13
2023-04-25T10:27:30.334Z,45.00
2023-04-25T10:30:06.314Z,45.70
2023-04-25T10:32:34.742Z,45.70
2023-04-25T10:35:13.424Z,47.05
2023-04-25T10:37:59.480Z,45.63
2023-04-25T10:40:28.065Z,44.70
2023-04-25T10:42:57.175Z,44.20
2023-04-25T10:45:25.393Z,41.60
2023-04-25T10:47:53.249Z,42.07
2023-04-25T10:50:21.322Z,45.65
2023-04-25T10:52:50.729Z,43.70
2023-04-25T10:55:18.516Z,44.92
2023-04-25T10:57:49.316Z,44.60
2023-04-25T11:00:19.388Z,45.60
2023-04-25T11:02:48.726Z,46.60
2023-04-25T11:05:32.852Z,45.28
2023-04-25T11:08:08.285Z,45.10
2023-04-25T11:10:37.457Z,46.00
2023-04-25T11:13:05.873Z,45.25
2023-04-25T11:15:33.750Z,45.70
2023-04-25T11:18:02.354Z,46.10
2023-04-25T11:20:30.583Z,47.15
2023-04-25T11:23:00.703Z,46.45
2023-04-25T11:25:30.801Z,47.00
2023-04-25T11:28:01.711Z,47.85
2023-04-25T11:30:29.739Z,47.10
2023-04-25T11:32:58.763Z,47.08
2023-04-25T11:35:27.003Z,48.00
2023-04-25T11:37:54.943Z,46.75
2023-04-25T11:40:23.035Z,46.70
2023-04-25T11:42:55.124Z,46.05
2023-04-25T11:45:25.415Z,46.08
2023-04-25T11:47:54.094Z,46.70
2023-04-25T11:50:22.267Z,46.40
2023-04-25T11:52:51.208Z,46.72
2023-04-25T11:55:21.516Z,46.20
2023-04-25T11:57:52.270Z,47.30
2023-04-25T12:00:22.302Z,46.10
2023-04-25T12:02:54.261Z,47.10
2023-04-25T12:05:32.859Z,47.20
2023-04-25T12:08:13.620Z,46.97
2023-04-25T12:10:42.914Z,47.30
2023-04-25T12:13:22.908Z,48.60
2023-04-25T12:15:50.908Z,48.67
2023-04-25T12:18:22.502Z,48.45
2023-04-25T12:20:50.821Z,48.08
2023-04-25T12:23:19.203Z,48.95
2023-04-25T12:25:48.012Z,47.78
2023-04-25T12:28:17.056Z,48.47
2023-04-25T12:30:57.162Z,47.50
2023-04-25T12:33:25.495Z,45.80
2023-04-25T12:35:54.051Z,46.47
2023-04-25T12:38:26.120Z,42.17
2023-04-25T12:40:54.146Z,41.87
2023-04-25T12:43:22.654Z,40.90
2023-04-25T12:45:51.859Z,42.00
2023-04-25T12:48:21.976Z,39.87
2023-04-25T12:50:50.680Z,41.67
2023-04-25T12:53:18.753Z,40.37
2023-04-25T12:55:48.209Z,41.80
2023-04-25T12:58:16.259Z,40.73
2023-04-25T13:00:44.212Z,39.37
2023-04-25T13:03:13.453Z,39.43
2023-04-25T13:05:43.102Z,41.47
2023-04-25T13:08:10.885Z,41.03
2023-04-25T13:10:40.063Z,42.08
2023-04-25T13:13:08.216Z,40.67
2023-04-25T13:15:36.298Z,43.13
2023-04-25T13:18:06.395Z,44.20
2023-04-25T13:20:34.575Z,44.20
2023-04-25T13:23:03.835Z,45.70
2023-04-25T13:25:31.742Z,46.03
2023-04-25T13:27:59.645Z,47.75
2023-04-25T13:30:27.578Z,46.30
2023-04-25T13:32:57.935Z,47.03
2023-04-25T13:35:26.725Z,48.03
2023-04-25T13:37:54.876Z,46.80
2023-04-25T13:40:25.624Z,47.80
2023-04-25T13:42:53.668Z,48.20
2023-04-25T13:45:22.519Z,47.80
2023-04-25T13:47:51.085Z,47.65
2023-04-25T13:50:19.720Z,47.10
2023-04-25T13:52:47.836Z,47.92
2023-04-25T13:55:15.801Z,47.28
2023-04-25T13:57:44.991Z,47.20
2023-04-25T14:00:14.389Z,47.50
2023-04-25T14:02:42.282Z,46.90
2023-04-25T14:05:11.010Z,45.70
2023-04-25T14:07:39.034Z,46.25
2023-04-25T14:10:08.501Z,45.33
2023-04-25T14:12:36.464Z,45.80
2023-04-25T14:15:06.859Z,46.67
2023-04-25T14:17:34.807Z,45.97
2023-04-25T14:20:02.819Z,48.50
2023-04-25T14:22:30.853Z,47.70
2023-04-25T14:24:58.978Z,46.85
2023-04-25T14:27:29.116Z,46.63
2023-04-25T14:29:57.278Z,47.30
2023-04-25T14:32:26.797Z,46.90
2023-04-25T14:34:54.627Z,47.47
2023-04-25T14:37:22.704Z,48.00
2023-04-25T14:39:50.539Z,48.67
2023-04-25T14:42:18.348Z,48.35
2023-04-25T14:44:46.426Z,48.80
2023-04-25T14:47:14.338Z,49.40
2023-04-25T14:49:43.881Z,52.77
2023-04-25T14:52:11.677Z,48.40
2023-04-25T14:54:39.482Z,48.20
2023-04-25T14:57:07.281Z,49.22
2023-04-25T14:59:35.111Z,49.90
2023-04-25T15:02:02.949Z,47.70
2023-04-25T15:04:31.707Z,48.53
2023-04-25T15:07:01.063Z,47.58
2023-04-25T15:09:29.693Z,46.80
2023-04-25T15:11:57.770Z,46.80
2023-04-25T15:14:25.697Z,47.40
2023-04-25T15:16:53.535Z,47.78
2023-04-25T15:19:21.353Z,46.70
2023-04-25T15:21:49.209Z,47.20
2023-04-25T15:24:18.960Z,47.58
2023-04-25T15:26:47.771Z,47.50
2023-04-25T15:29:16.394Z,48.50
2023-04-25T15:31:44.300Z,47.40
2023-04-25T15:34:12.484Z,46.90
2023-04-25T15:36:40.321Z,47.77
2023-04-25T15:39:08.218Z,47.20
2023-04-25T15:41:38.232Z,47.25
2023-04-25T15:44:08.070Z,47.00
2023-04-25T15:46:35.981Z,47.15
2023-04-25T15:49:03.940Z,46.33
2023-04-25T15:51:31.914Z,46.30
2023-04-25T15:56:39.441Z,45.73
2023-04-25T15:59:07.614Z,45.63
2023-04-25T16:01:35.579Z,45.83
2023-04-25T16:04:03.950Z,45.67
2023-04-25T16:06:32.005Z,46.53
2023-04-25T16:09:00.361Z,45.75
2023-04-25T16:11:30.203Z,45.87
2023-04-25T16:13:59.624Z,45.45
2023-04-25T16:16:27.635Z,46.13
2023-04-25T16:18:55.839Z,47.00
2023-04-25T16:21:23.961Z,47.33
2023-04-25T16:23:52.321Z,47.67
2023-04-25T16:26:20.580Z,48.20
2023-04-25T16:28:51.614Z,47.92
2023-04-25T16:31:21.186Z,49.50
2023-04-25T16:33:49.583Z,50.50
2023-04-25T16:36:18.011Z,47.50
2023-04-25T16:38:45.937Z,49.05
2023-04-25T16:41:14.089Z,49.00
2023-04-25T16:43:42.024Z,48.83
2023-04-25T16:46:10.142Z,48.47
2023-04-25T16:48:39.653Z,47.33
2023-04-25T16:51:07.720Z,47.08
2023-04-25T16:53:36.215Z,46.90
2023-04-25T16:56:04.629Z,47.00
2023-04-25T16:58:32.960Z,46.83
2023-04-25T17:01:01.402Z,46.60
2023-04-25T17:03:29.677Z,46.53
2023-04-25T17:06:01.364Z,46.10
2023-04-25T17:08:29.573Z,45.80
2023-04-25T17:10:57.642Z,48.17
2023-04-25T17:13:31.089Z,46.58
2023-04-25T17:15:59.686Z,45.85
2023-04-25T17:18:28.347Z,46.22
2023-04-25T17:20:58.199Z,45.73
2023-04-25T17:23:26.402Z,46.20
2023-04-25T17:25:54.439Z,45.60
2023-04-25T17:28:22.869Z,46.38
2023-04-25T17:30:51.076Z,46.17
2023-04-25T17:33:19.144Z,45.70
2023-04-25T17:35:47.669Z,46.60
2023-04-25T17:38:17.137Z,46.00
2023-04-25T17:40:45.227Z,46.08
2023-04-25T17:43:13.447Z,45.70
2023-04-25T17:45:41.707Z,45.88
2023-04-25T17:48:09.845Z,46.45
2023-04-25T17:50:38.083Z,45.72
2023-04-25T17:53:06.300Z,45.60
2023-04-25T17:55:35.816Z,45.22
2023-04-25T17:58:04.117Z,45.10
2023-04-25T18:00:33.550Z,46.10
2023-04-25T18:03:01.549Z,45.33
2023-04-25T18:05:31.164Z,46.15
2023-04-25T18:07:59.428Z,45.70
2023-04-25T18:10:27.378Z,45.50
2023-04-25T18:12:56.776Z,45.40
2023-04-25T18:15:24.975Z,45.70
2023-04-25T18:17:53.079Z,45.90
2023-04-25T18:20:22.229Z,46.47
2023-04-25T18:22:50.751Z,46.53
2023-04-25T18:25:19.051Z,44.90
2023-04-25T18:27:47.363Z,45.30
2023-04-25T18:30:16.922Z,44.70
2023-04-25T18:32:44.893Z,44.90
2023-04-25T18:35:12.826Z,44.70
2023-04-25T18:37:42.336Z,45.15
2023-04-25T18:40:13.843Z,45.35
2023-04-25T18:42:42.084Z,44.60
2023-04-25T18:45:11.689Z,44.25
2023-04-25T18:47:41.025Z,44.38
2023-04-25T18:50:09.818Z,44.42
2023-04-25T18:52:38.354Z,44.80
2023-04-25T18:55:07.398Z,44.53
2023-04-25T18:57:36.009Z,45.20
2023-04-25T19:00:07.017Z,44.30
2023-04-25T19:02:37.064Z,44.13
2023-04-25T19:05:07.465Z,44.25
2023-04-25T19:07:36.160Z,44.95
2023-04-25T19:10:04.848Z,44.10
2023-04-25T19:12:33.501Z,44.20
2023-04-25T19:15:01.732Z,43.80
2023-04-25T19:17:30.524Z,44.40
2023-04-25T19:19:58.607Z,43.88
2023-04-25T19:22:28.473Z,44.30
2023-04-25T19:25:09.125Z,44.00
2023-04-25T19:27:38.999Z,44.28
2023-04-25T19:30:11.488Z,44.10
2023-04-25T19:32:39.962Z,43.80
2023-04-25T19:35:11.643Z,44.03
2023-04-25T19:37:46.302Z,44.00
2023-04-25T19:40:16.010Z,44.53
2023-04-25T19:42:44.087Z,44.25
2023-04-25T19:45:13.006Z,44.05
2023-04-25T19:47:41.833Z,43.90
2023-04-25T19:50:11.198Z,43.55
2023-04-25T19:52:41.654Z,44.40
2023-04-25T19:55:11.260Z,44.33
2023-04-25T19:57:39.563Z,44.10
2023-04-25T20:00:10.743Z,44.88
2023-04-25T20:02:39.041Z,43.70
2023-04-25T20:05:08.322Z,43.83
2023-04-25T20:07:37.094Z,43.95
2023-04-25T20:10:08.139Z,45.33
2023-04-25T20:12:37.624Z,44.60
2023-04-25T20:15:06.699Z,43.50
2023-04-25T20:17:35.058Z,44.10
2023-04-25T20:20:04.131Z,43.92
2023-04-25T20:22:36.031Z,43.80
2023-04-25T20:25:08.323Z,43.78
2023-04-25T20:27:37.795Z,43.42
2023-04-25T20:30:07.985Z,43.10
2023-04-25T20:32:36.684Z,44.13
2023-04-25T20:35:07.357Z,43.45
2023-04-25T20:37:35.965Z,43.10
2023-04-25T20:40:08.606Z,43.35
2023-04-25T20:42:36.967Z,43.45
2023-04-25T20:45:07.529Z,43.50
2023-04-25T20:47:35.935Z,43.00
2023-04-25T20:50:05.905Z,43.80
2023-04-25T20:52:34.394Z,43.05
2023-04-25T20:55:02.288Z,45.10
2023-04-25T20:57:32.255Z,43.40
2023-04-25T21:00:00.101Z,44.50
2023-04-25T21:02:28.894Z,43.05
2023-04-25T21:04:56.864Z,42.75
2023-04-25T21:07:24.972Z,42.58
2023-04-25T21:09:53.087Z,43.38
2023-04-25T21:12:21.186Z,43.80
2023-04-25T21:14:50.611Z,43.80
2023-04-25T21:17:18.534Z,43.40
2023-04-25T21:19:46.487Z,44.20
2023-04-25T21:22:14.741Z,43.87
2023-04-25T21:24:42.570Z,43.30
2023-04-25T21:27:10.751Z,43.08
2023-04-25T21:29:38.916Z,43.70
2023-04-25T21:32:08.861Z,44.72
2023-04-25T21:34:36.763Z,43.50
2023-04-25T21:37:04.673Z,43.67
2023-04-25T21:39:33.006Z,43.38
2023-04-25T21:42:01.806Z,43.42
2023-04-25T21:44:30.399Z,43.13
2023-04-25T21:46:58.354Z,43.50
2023-04-25T21:49:29.714Z,43.47
2023-04-25T21:51:57.904Z,44.25
2023-04-25T21:54:26.104Z,43.47
2023-04-25T21:56:54.210Z,44.28
2023-04-25T21:59:24.810Z,44.80
2023-04-25T22:01:54.327Z,43.20
2023-04-25T22:04:22.727Z,43.05
2023-04-25T22:06:52.845Z,42.30
2023-04-25T22:09:20.772Z,43.60
2023-04-25T22:11:48.760Z,42.80
2023-04-25T22:14:16.741Z,42.28
2023-04-25T22:16:44.947Z,42.70
2023-04-25T22:19:12.974Z,42.20
2023-04-25T22:21:40.889Z,42.00
2023-04-25T22:24:10.497Z,42.40
2023-04-25T22:26:38.486Z,42.20
2023-04-25T22:29:06.829Z,43.03
2023-04-25T22:31:34.955Z,42.20
2023-04-25T22:34:03.395Z,42.67
2023-04-25T22:36:31.336Z,42.05
2023-04-25T22:38:59.213Z,42.30
2023-04-25T22:41:28.592Z,42.30
2023-04-25T22:43:56.826Z,42.50
2023-04-25T22:46:24.811Z,42.40
2023-04-25T22:48:53.382Z,43.00
2023-04-25T22:51:22.180Z,41.80
2023-04-25T22:53:50.162Z,42.15
2023-04-25T22:56:18.370Z,42.20
2023-04-25T22:58:49.533Z,43.17
2023-04-25T23:01:19.301Z,42.20
2023-04-25T23:03:48.596Z,42.97
2023-04-25T23:06:17.083Z,42.60
2023-04-25T23:08:45.341Z,42.38
2023-04-25T23:11:14.035Z,41.80
2023-04-25T23:13:41.872Z,42.70
2023-04-25T23:16:12.788Z,42.83
2023-04-25T23:18:41.277Z,42.10
2023-04-25T23:21:09.357Z,41.50
2023-04-25T23:23:37.908Z,42.70
2023-04-25T23:26:08.927Z,41.97
2023-04-25T23:28:39.920Z,41.72
2023-04-25T23:31:12.059Z,41.40
2023-04-25T23:33:40.386Z,41.80
2023-04-25T23:36:08.436Z,41.47
2023-04-25T23:38:36.242Z,41.70
2023-04-25T23:41:04.332Z,41.95
2023-04-25T23:43:32.432Z,41.50
2023-04-25T23:46:00.331Z,41.92
2023-04-25T23:48:29.617Z,41.83
2023-04-25T23:50:57.501Z,42.30
2023-04-25T23:53:25.588Z,41.40
2023-04-25T23:55:53.604Z,41.50
2023-04-25T23:58:21.498Z,41.60
